sensor_id;sensor_type;location;lat;lon;timestamp;P1;durP1;ratioP1;P2;durP2;ratioP2
5125;SDS011;2581;53.112;8.896;2022-07-23T00:00:19;2.40;;;1.83;;
5125;SDS011;2581;53.112;8.896;2022-07-23T00:02:45;2.33;;;1.43;;
5125;SDS011;2581;53.112;8.896;2022-07-23T00:05:11;2.47;;;1.50;;
5125;SDS011;2581;53.112;8.896;2022-07-23T00:07:37;3.87;;;1.47;;
5125;SDS011;2581;53.112;8.896;2022-07-23T00:10:04;5.23;;;1.57;;
5125;SDS011;2581;53.112;8.896;2022-07-23T00:12:30;7.67;;;1.10;;
5125;SDS011;2581;53.112;8.896;2022-07-23T00:14:55;7.30;;;1.97;;
5125;SDS011;2581;53.112;8.896;2022-07-23T00:17:21;1.37;;;1.27;;
5125;SDS011;2581;53.112;8.896;2022-07-23T00:19:47;4.47;;;1.83;;
5125;SDS011;2581;53.112;8.896;2022-07-23T00:22:13;4.40;;;1.60;;
5125;SDS011;2581;53.112;8.896;2022-07-23T00:24:38;2.80;;;1.67;;
5125;SDS011;2581;53.112;8.896;2022-07-23T00:27:04;4.10;;;1.90;;
5125;SDS011;2581;53.112;8.896;2022-07-23T00:29:29;3.67;;;1.53;;
5125;SDS011;2581;53.112;8.896;2022-07-23T00:31:55;1.73;;;0.87;;
5125;SDS011;2581;53.112;8.896;2022-07-23T00:34:21;6.00;;;1.33;;
5125;SDS011;2581;53.112;8.896;2022-07-23T00:36:47;4.47;;;1.83;;
5125;SDS011;2581;53.112;8.896;2022-07-23T00:39:12;4.23;;;1.73;;
5125;SDS011;2581;53.112;8.896;2022-07-23T00:41:38;5.77;;;1.83;;
5125;SDS011;2581;53.112;8.896;2022-07-23T00:46:51;4.67;;;1.73;;
5125;SDS011;2581;53.112;8.896;2022-07-23T00:49:29;2.20;;;1.53;;
5125;SDS011;2581;53.112;8.896;2022-07-23T00:51:56;3.33;;;1.60;;
5125;SDS011;2581;53.112;8.896;2022-07-23T00:54:26;2.20;;;1.50;;
5125;SDS011;2581;53.112;8.896;2022-07-23T00:56:52;5.13;;;1.90;;
5125;SDS011;2581;53.112;8.896;2022-07-23T00:59:18;3.17;;;2.17;;
5125;SDS011;2581;53.112;8.896;2022-07-23T01:01:44;2.43;;;2.23;;
5125;SDS011;2581;53.112;8.896;2022-07-23T01:04:13;4.57;;;1.80;;
5125;SDS011;2581;53.112;8.896;2022-07-23T01:06:40;7.57;;;2.53;;
5125;SDS011;2581;53.112;8.896;2022-07-23T01:09:06;3.33;;;1.90;;
5125;SDS011;2581;53.112;8.896;2022-07-23T01:11:33;3.60;;;2.40;;
5125;SDS011;2581;53.112;8.896;2022-07-23T01:14:07;6.17;;;2.43;;
5125;SDS011;2581;53.112;8.896;2022-07-23T01:16:37;2.53;;;2.00;;
5125;SDS011;2581;53.112;8.896;2022-07-23T01:19:03;6.73;;;2.40;;
5125;SDS011;2581;53.112;8.896;2022-07-23T01:21:31;6.37;;;2.00;;
5125;SDS011;2581;53.112;8.896;2022-07-23T01:24:01;2.70;;;1.90;;
5125;SDS011;2581;53.112;8.896;2022-07-23T01:26:26;2.23;;;1.83;;
5125;SDS011;2581;53.112;8.896;2022-07-23T01:28:52;3.47;;;2.10;;
5125;SDS011;2581;53.112;8.896;2022-07-23T01:31:18;2.60;;;2.07;;
5125;SDS011;2581;53.112;8.896;2022-07-23T01:33:44;2.77;;;2.57;;
5125;SDS011;2581;53.112;8.896;2022-07-23T01:36:09;6.90;;;2.53;;
5125;SDS011;2581;53.112;8.896;2022-07-23T01:38:36;2.50;;;2.07;;
5125;SDS011;2581;53.112;8.896;2022-07-23T01:41:01;3.00;;;2.10;;
5125;SDS011;2581;53.112;8.896;2022-07-23T01:43:27;3.43;;;2.20;;
5125;SDS011;2581;53.112;8.896;2022-07-23T01:45:53;3.00;;;1.97;;
5125;SDS011;2581;53.112;8.896;2022-07-23T01:48:18;2.83;;;2.10;;
5125;SDS011;2581;53.112;8.896;2022-07-23T01:50:45;4.40;;;2.17;;
5125;SDS011;2581;53.112;8.896;2022-07-23T01:53:12;2.80;;;2.30;;
5125;SDS011;2581;53.112;8.896;2022-07-23T01:55:38;8.07;;;2.10;;
5125;SDS011;2581;53.112;8.896;2022-07-23T01:58:04;5.53;;;2.20;;
5125;SDS011;2581;53.112;8.896;2022-07-23T02:00:30;5.10;;;2.40;;
5125;SDS011;2581;53.112;8.896;2022-07-23T02:02:56;3.50;;;1.87;;
5125;SDS011;2581;53.112;8.896;2022-07-23T02:05:23;3.37;;;2.03;;
5125;SDS011;2581;53.112;8.896;2022-07-23T02:07:49;6.30;;;2.27;;
5125;SDS011;2581;53.112;8.896;2022-07-23T02:10:15;6.03;;;2.40;;
5125;SDS011;2581;53.112;8.896;2022-07-23T02:12:41;5.50;;;2.40;;
5125;SDS011;2581;53.112;8.896;2022-07-23T02:15:07;5.17;;;2.30;;
5125;SDS011;2581;53.112;8.896;2022-07-23T02:17:33;5.20;;;3.00;;
5125;SDS011;2581;53.112;8.896;2022-07-23T02:19:59;4.67;;;2.70;;
5125;SDS011;2581;53.112;8.896;2022-07-23T02:22:24;6.00;;;2.73;;
5125;SDS011;2581;53.112;8.896;2022-07-23T02:24:50;3.10;;;2.80;;
5125;SDS011;2581;53.112;8.896;2022-07-23T02:27:16;4.70;;;2.77;;
5125;SDS011;2581;53.112;8.896;2022-07-23T02:29:41;5.20;;;3.10;;
5125;SDS011;2581;53.112;8.896;2022-07-23T02:32:07;4.93;;;3.20;;
5125;SDS011;2581;53.112;8.896;2022-07-23T02:34:33;3.67;;;3.37;;
5125;SDS011;2581;53.112;8.896;2022-07-23T02:36:58;5.80;;;4.20;;
5125;SDS011;2581;53.112;8.896;2022-07-23T02:39:24;6.53;;;3.90;;
5125;SDS011;2581;53.112;8.896;2022-07-23T02:41:50;3.17;;;2.90;;
5125;SDS011;2581;53.112;8.896;2022-07-23T02:44:15;4.87;;;3.90;;
5125;SDS011;2581;53.112;8.896;2022-07-23T02:46:41;5.27;;;4.10;;
5125;SDS011;2581;53.112;8.896;2022-07-23T02:49:07;6.83;;;3.27;;
5125;SDS011;2581;53.112;8.896;2022-07-23T02:51:32;4.63;;;2.70;;
5125;SDS011;2581;53.112;8.896;2022-07-23T02:53:58;3.60;;;2.60;;
5125;SDS011;2581;53.112;8.896;2022-07-23T02:56:23;3.23;;;2.93;;
5125;SDS011;2581;53.112;8.896;2022-07-23T02:58:49;3.20;;;2.10;;
5125;SDS011;2581;53.112;8.896;2022-07-23T03:01:15;2.83;;;2.40;;
5125;SDS011;2581;53.112;8.896;2022-07-23T03:03:40;3.80;;;2.20;;
5125;SDS011;2581;53.112;8.896;2022-07-23T03:06:06;5.70;;;2.10;;
5125;SDS011;2581;53.112;8.896;2022-07-23T03:08:32;4.30;;;2.00;;
5125;SDS011;2581;53.112;8.896;2022-07-23T03:10:57;2.43;;;2.07;;
5125;SDS011;2581;53.112;8.896;2022-07-23T03:13:23;3.43;;;2.20;;
5125;SDS011;2581;53.112;8.896;2022-07-23T03:15:49;2.10;;;1.90;;
5125;SDS011;2581;53.112;8.896;2022-07-23T03:18:14;6.20;;;2.50;;
5125;SDS011;2581;53.112;8.896;2022-07-23T03:20:40;3.33;;;1.70;;
5125;SDS011;2581;53.112;8.896;2022-07-23T03:23:06;3.50;;;2.23;;
5125;SDS011;2581;53.112;8.896;2022-07-23T03:25:31;3.47;;;2.10;;
5125;SDS011;2581;53.112;8.896;2022-07-23T03:27:57;5.03;;;2.00;;
5125;SDS011;2581;53.112;8.896;2022-07-23T03:30:23;7.83;;;2.37;;
5125;SDS011;2581;53.112;8.896;2022-07-23T03:32:48;4.07;;;1.97;;
5125;SDS011;2581;53.112;8.896;2022-07-23T03:35:14;3.60;;;1.90;;
5125;SDS011;2581;53.112;8.896;2022-07-23T03:37:40;2.03;;;1.67;;
5125;SDS011;2581;53.112;8.896;2022-07-23T03:40:06;2.03;;;1.60;;
5125;SDS011;2581;53.112;8.896;2022-07-23T03:42:32;4.03;;;1.73;;
5125;SDS011;2581;53.112;8.896;2022-07-23T03:44:57;2.90;;;1.80;;
5125;SDS011;2581;53.112;8.896;2022-07-23T03:47:23;2.23;;;1.60;;
5125;SDS011;2581;53.112;8.896;2022-07-23T03:49:49;2.50;;;1.30;;
5125;SDS011;2581;53.112;8.896;2022-07-23T03:52:15;1.90;;;1.70;;
5125;SDS011;2581;53.112;8.896;2022-07-23T03:54:40;3.23;;;1.23;;
5125;SDS011;2581;53.112;8.896;2022-07-23T03:57:06;2.03;;;1.43;;
5125;SDS011;2581;53.112;8.896;2022-07-23T03:59:32;2.53;;;1.53;;
5125;SDS011;2581;53.112;8.896;2022-07-23T04:01:57;3.13;;;1.90;;
5125;SDS011;2581;53.112;8.896;2022-07-23T04:04:23;4.53;;;1.80;;
5125;SDS011;2581;53.112;8.896;2022-07-23T04:06:49;7.97;;;2.00;;
5125;SDS011;2581;53.112;8.896;2022-07-23T04:09:14;5.60;;;2.33;;
5125;SDS011;2581;53.112;8.896;2022-07-23T04:11:40;3.53;;;1.80;;
5125;SDS011;2581;53.112;8.896;2022-07-23T04:14:06;1.80;;;1.50;;
5125;SDS011;2581;53.112;8.896;2022-07-23T04:16:32;3.43;;;1.70;;
5125;SDS011;2581;53.112;8.896;2022-07-23T04:18:58;3.47;;;1.67;;
5125;SDS011;2581;53.112;8.896;2022-07-23T04:21:23;1.97;;;1.33;;
5125;SDS011;2581;53.112;8.896;2022-07-23T04:23:49;3.27;;;1.50;;
5125;SDS011;2581;53.112;8.896;2022-07-23T04:26:15;4.50;;;1.77;;
5125;SDS011;2581;53.112;8.896;2022-07-23T04:28:41;2.40;;;1.63;;
5125;SDS011;2581;53.112;8.896;2022-07-23T04:31:07;2.40;;;1.73;;
5125;SDS011;2581;53.112;8.896;2022-07-23T04:33:33;2.63;;;1.67;;
5125;SDS011;2581;53.112;8.896;2022-07-23T04:35:59;5.43;;;1.97;;
5125;SDS011;2581;53.112;8.896;2022-07-23T04:38:24;7.37;;;1.80;;
5125;SDS011;2581;53.112;8.896;2022-07-23T04:40:50;8.43;;;1.67;;
5125;SDS011;2581;53.112;8.896;2022-07-23T04:43:16;2.23;;;1.20;;
5125;SDS011;2581;53.112;8.896;2022-07-23T04:45:41;5.93;;;1.53;;
5125;SDS011;2581;53.112;8.896;2022-07-23T04:48:07;3.27;;;1.50;;
5125;SDS011;2581;53.112;8.896;2022-07-23T04:50:33;2.13;;;1.60;;
5125;SDS011;2581;53.112;8.896;2022-07-23T04:52:58;2.13;;;1.60;;
5125;SDS011;2581;53.112;8.896;2022-07-23T04:55:24;2.87;;;1.40;;
5125;SDS011;2581;53.112;8.896;2022-07-23T04:57:50;4.80;;;1.73;;
5125;SDS011;2581;53.112;8.896;2022-07-23T05:00:15;2.37;;;1.53;;
5125;SDS011;2581;53.112;8.896;2022-07-23T05:02:41;2.20;;;1.57;;
5125;SDS011;2581;53.112;8.896;2022-07-23T05:05:07;4.30;;;1.73;;
5125;SDS011;2581;53.112;8.896;2022-07-23T05:07:33;4.30;;;1.80;;
5125;SDS011;2581;53.112;8.896;2022-07-23T05:09:59;2.93;;;1.53;;
5125;SDS011;2581;53.112;8.896;2022-07-23T05:12:24;3.43;;;1.50;;
5125;SDS011;2581;53.112;8.896;2022-07-23T05:14:50;4.03;;;1.77;;
5125;SDS011;2581;53.112;8.896;2022-07-23T05:17:17;2.90;;;1.93;;
5125;SDS011;2581;53.112;8.896;2022-07-23T05:19:43;2.27;;;1.40;;
5125;SDS011;2581;53.112;8.896;2022-07-23T05:22:09;2.53;;;1.83;;
5125;SDS011;2581;53.112;8.896;2022-07-23T05:24:35;1.67;;;1.57;;
5125;SDS011;2581;53.112;8.896;2022-07-23T05:27:00;3.60;;;2.00;;
5125;SDS011;2581;53.112;8.896;2022-07-23T05:29:26;1.37;;;1.23;;
5125;SDS011;2581;53.112;8.896;2022-07-23T05:31:51;3.77;;;1.70;;
5125;SDS011;2581;53.112;8.896;2022-07-23T05:34:17;4.67;;;2.00;;
5125;SDS011;2581;53.112;8.896;2022-07-23T05:36:43;3.70;;;1.50;;
5125;SDS011;2581;53.112;8.896;2022-07-23T05:39:08;3.37;;;1.73;;
5125;SDS011;2581;53.112;8.896;2022-07-23T05:41:34;5.10;;;2.00;;
5125;SDS011;2581;53.112;8.896;2022-07-23T05:44:00;3.27;;;1.43;;
5125;SDS011;2581;53.112;8.896;2022-07-23T05:46:25;2.03;;;1.60;;
5125;SDS011;2581;53.112;8.896;2022-07-23T05:48:51;3.47;;;1.83;;
5125;SDS011;2581;53.112;8.896;2022-07-23T05:51:21;3.57;;;1.50;;
5125;SDS011;2581;53.112;8.896;2022-07-23T05:53:47;9.67;;;2.70;;
5125;SDS011;2581;53.112;8.896;2022-07-23T05:56:13;1.63;;;1.50;;
5125;SDS011;2581;53.112;8.896;2022-07-23T05:58:39;7.50;;;3.23;;
5125;SDS011;2581;53.112;8.896;2022-07-23T06:01:05;13.37;;;5.87;;
5125;SDS011;2581;53.112;8.896;2022-07-23T06:03:31;7.43;;;3.60;;
5125;SDS011;2581;53.112;8.896;2022-07-23T06:05:56;10.13;;;4.60;;
5125;SDS011;2581;53.112;8.896;2022-07-23T06:08:22;4.00;;;2.50;;
5125;SDS011;2581;53.112;8.896;2022-07-23T06:10:48;5.63;;;2.70;;
5125;SDS011;2581;53.112;8.896;2022-07-23T06:13:13;4.60;;;2.57;;
5125;SDS011;2581;53.112;8.896;2022-07-23T06:15:39;3.77;;;2.43;;
5125;SDS011;2581;53.112;8.896;2022-07-23T06:18:05;3.37;;;2.70;;
5125;SDS011;2581;53.112;8.896;2022-07-23T06:20:30;4.20;;;2.23;;
5125;SDS011;2581;53.112;8.896;2022-07-23T06:22:56;5.50;;;2.73;;
5125;SDS011;2581;53.112;8.896;2022-07-23T06:25:22;4.13;;;2.57;;
5125;SDS011;2581;53.112;8.896;2022-07-23T06:27:48;4.57;;;2.67;;
5125;SDS011;2581;53.112;8.896;2022-07-23T06:30:14;8.83;;;2.60;;
5125;SDS011;2581;53.112;8.896;2022-07-23T06:32:42;4.93;;;2.77;;
5125;SDS011;2581;53.112;8.896;2022-07-23T06:35:07;5.13;;;3.07;;
5125;SDS011;2581;53.112;8.896;2022-07-23T06:37:33;6.43;;;2.10;;
5125;SDS011;2581;53.112;8.896;2022-07-23T06:39:59;4.80;;;2.60;;
5125;SDS011;2581;53.112;8.896;2022-07-23T06:42:24;6.87;;;2.70;;
5125;SDS011;2581;53.112;8.896;2022-07-23T06:44:50;3.63;;;1.90;;
5125;SDS011;2581;53.112;8.896;2022-07-23T06:47:16;1.53;;;1.27;;
5125;SDS011;2581;53.112;8.896;2022-07-23T06:49:41;3.20;;;1.00;;
5125;SDS011;2581;53.112;8.896;2022-07-23T06:52:07;3.13;;;1.27;;
5125;SDS011;2581;53.112;8.896;2022-07-23T06:54:33;2.13;;;1.07;;
5125;SDS011;2581;53.112;8.896;2022-07-23T06:56:59;2.33;;;1.50;;
5125;SDS011;2581;53.112;8.896;2022-07-23T06:59:25;3.57;;;1.30;;
5125;SDS011;2581;53.112;8.896;2022-07-23T07:01:51;5.57;;;1.67;;
5125;SDS011;2581;53.112;8.896;2022-07-23T07:04:16;3.80;;;1.97;;
5125;SDS011;2581;53.112;8.896;2022-07-23T07:06:42;1.90;;;1.70;;
5125;SDS011;2581;53.112;8.896;2022-07-23T07:09:07;1.77;;;1.17;;
5125;SDS011;2581;53.112;8.896;2022-07-23T07:11:33;3.70;;;1.23;;
5125;SDS011;2581;53.112;8.896;2022-07-23T07:13:59;1.10;;;1.00;;
5125;SDS011;2581;53.112;8.896;2022-07-23T07:16:24;6.13;;;1.43;;
5125;SDS011;2581;53.112;8.896;2022-07-23T07:18:50;1.93;;;1.33;;
5125;SDS011;2581;53.112;8.896;2022-07-23T07:21:16;3.40;;;1.10;;
5125;SDS011;2581;53.112;8.896;2022-07-23T07:23:41;3.63;;;1.57;;
5125;SDS011;2581;53.112;8.896;2022-07-23T07:26:07;3.70;;;1.50;;
5125;SDS011;2581;53.112;8.896;2022-07-23T07:28:32;2.30;;;1.07;;
5125;SDS011;2581;53.112;8.896;2022-07-23T07:30:58;2.60;;;0.93;;
5125;SDS011;2581;53.112;8.896;2022-07-23T07:33:24;3.87;;;0.87;;
5125;SDS011;2581;53.112;8.896;2022-07-23T07:35:49;1.43;;;1.00;;
5125;SDS011;2581;53.112;8.896;2022-07-23T07:38:15;2.03;;;1.00;;
5125;SDS011;2581;53.112;8.896;2022-07-23T07:40:41;2.20;;;1.20;;
5125;SDS011;2581;53.112;8.896;2022-07-23T07:43:06;1.63;;;1.50;;
5125;SDS011;2581;53.112;8.896;2022-07-23T07:45:32;1.60;;;1.03;;
5125;SDS011;2581;53.112;8.896;2022-07-23T07:47:58;3.10;;;1.00;;
5125;SDS011;2581;53.112;8.896;2022-07-23T07:50:24;2.80;;;0.97;;
5125;SDS011;2581;53.112;8.896;2022-07-23T07:52:50;3.17;;;0.83;;
5125;SDS011;2581;53.112;8.896;2022-07-23T07:55:15;3.17;;;0.90;;
5125;SDS011;2581;53.112;8.896;2022-07-23T07:57:41;1.00;;;0.80;;
5125;SDS011;2581;53.112;8.896;2022-07-23T08:00:07;2.93;;;0.80;;
5125;SDS011;2581;53.112;8.896;2022-07-23T08:02:44;0.97;;;0.90;;
5125;SDS011;2581;53.112;8.896;2022-07-23T08:05:12;1.00;;;0.90;;
5125;SDS011;2581;53.112;8.896;2022-07-23T08:07:39;1.57;;;1.00;;
5125;SDS011;2581;53.112;8.896;2022-07-23T08:10:08;7.50;;;1.63;;
5125;SDS011;2581;53.112;8.896;2022-07-23T08:12:54;2.20;;;1.10;;
5125;SDS011;2581;53.112;8.896;2022-07-23T08:15:21;1.67;;;1.20;;
5125;SDS011;2581;53.112;8.896;2022-07-23T08:17:48;3.07;;;1.40;;
5125;SDS011;2581;53.112;8.896;2022-07-23T08:20:15;1.07;;;1.07;;
5125;SDS011;2581;53.112;8.896;2022-07-23T08:25:14;1.30;;;0.97;;
5125;SDS011;2581;53.112;8.896;2022-07-23T08:27:42;2.37;;;1.20;;
5125;SDS011;2581;53.112;8.896;2022-07-23T08:30:08;1.60;;;1.40;;
5125;SDS011;2581;53.112;8.896;2022-07-23T08:32:47;4.77;;;1.13;;
5125;SDS011;2581;53.112;8.896;2022-07-23T08:35:36;3.00;;;1.23;;
5125;SDS011;2581;53.112;8.896;2022-07-23T08:38:04;2.23;;;1.03;;
5125;SDS011;2581;53.112;8.896;2022-07-23T08:40:37;3.40;;;1.07;;
5125;SDS011;2581;53.112;8.896;2022-07-23T08:43:09;1.80;;;0.87;;
5125;SDS011;2581;53.112;8.896;2022-07-23T08:45:40;2.60;;;0.97;;
5125;SDS011;2581;53.112;8.896;2022-07-23T08:48:11;1.37;;;0.80;;
5125;SDS011;2581;53.112;8.896;2022-07-23T08:50:46;1.67;;;1.20;;
5125;SDS011;2581;53.112;8.896;2022-07-23T08:53:19;4.60;;;0.70;;
5125;SDS011;2581;53.112;8.896;2022-07-23T08:55:49;0.80;;;0.80;;
5125;SDS011;2581;53.112;8.896;2022-07-23T08:58:17;4.33;;;0.87;;
5125;SDS011;2581;53.112;8.896;2022-07-23T09:00:43;1.80;;;0.63;;
5125;SDS011;2581;53.112;8.896;2022-07-23T09:03:17;1.10;;;0.70;;
5125;SDS011;2581;53.112;8.896;2022-07-23T09:05:44;5.80;;;5.20;;
5125;SDS011;2581;53.112;8.896;2022-07-23T09:08:14;2.67;;;2.00;;
5125;SDS011;2581;53.112;8.896;2022-07-23T09:15:54;1.03;;;1.03;;
5125;SDS011;2581;53.112;8.896;2022-07-23T09:18:35;0.80;;;0.70;;
5125;SDS011;2581;53.112;8.896;2022-07-23T09:23:45;1.07;;;0.97;;
5125;SDS011;2581;53.112;8.896;2022-07-23T09:26:21;2.10;;;0.80;;
5125;SDS011;2581;53.112;8.896;2022-07-23T09:34:23;1.60;;;0.60;;
5125;SDS011;2581;53.112;8.896;2022-07-23T09:36:54;0.60;;;0.50;;
5125;SDS011;2581;53.112;8.896;2022-07-23T09:39:33;1.63;;;0.50;;
5125;SDS011;2581;53.112;8.896;2022-07-23T09:44:48;1.33;;;0.80;;
5125;SDS011;2581;53.112;8.896;2022-07-23T09:47:18;1.47;;;0.80;;
5125;SDS011;2581;53.112;8.896;2022-07-23T09:50:04;2.50;;;2.30;;
5125;SDS011;2581;53.112;8.896;2022-07-23T09:52:34;5.20;;;2.80;;
5125;SDS011;2581;53.112;8.896;2022-07-23T09:55:02;2.50;;;2.17;;
5125;SDS011;2581;53.112;8.896;2022-07-23T09:57:29;0.80;;;0.80;;
5125;SDS011;2581;53.112;8.896;2022-07-23T10:00:06;0.90;;;0.50;;
5125;SDS011;2581;53.112;8.896;2022-07-23T10:02:35;1.10;;;0.50;;
5125;SDS011;2581;53.112;8.896;2022-07-23T10:05:01;1.37;;;0.80;;
5125;SDS011;2581;53.112;8.896;2022-07-23T10:07:27;0.70;;;0.50;;
5125;SDS011;2581;53.112;8.896;2022-07-23T10:09:58;0.70;;;0.60;;
5125;SDS011;2581;53.112;8.896;2022-07-23T10:12:25;0.77;;;0.60;;
5125;SDS011;2581;53.112;8.896;2022-07-23T10:15:09;0.70;;;0.70;;
5125;SDS011;2581;53.112;8.896;2022-07-23T10:17:35;1.00;;;0.80;;
5125;SDS011;2581;53.112;8.896;2022-07-23T10:20:02;2.87;;;0.80;;
5125;SDS011;2581;53.112;8.896;2022-07-23T10:22:48;1.13;;;0.83;;
5125;SDS011;2581;53.112;8.896;2022-07-23T10:28:01;4.13;;;0.83;;
5125;SDS011;2581;53.112;8.896;2022-07-23T10:30:45;3.13;;;1.00;;
5125;SDS011;2581;53.112;8.896;2022-07-23T10:36:37;0.70;;;0.70;;
5125;SDS011;2581;53.112;8.896;2022-07-23T10:41:48;0.50;;;0.50;;
5125;SDS011;2581;53.112;8.896;2022-07-23T10:44:16;0.70;;;0.60;;
5125;SDS011;2581;53.112;8.896;2022-07-23T10:47:01;1.23;;;0.60;;
5125;SDS011;2581;53.112;8.896;2022-07-23T10:49:37;1.03;;;0.43;;
5125;SDS011;2581;53.112;8.896;2022-07-23T10:52:36;1.43;;;0.80;;
5125;SDS011;2581;53.112;8.896;2022-07-23T10:57:27;0.53;;;0.43;;
5125;SDS011;2581;53.112;8.896;2022-07-23T11:02:29;1.23;;;0.50;;
5125;SDS011;2581;53.112;8.896;2022-07-23T11:04:59;1.00;;;0.50;;
5125;SDS011;2581;53.112;8.896;2022-07-23T11:07:33;0.43;;;0.43;;
5125;SDS011;2581;53.112;8.896;2022-07-23T11:09:59;1.73;;;0.60;;
5125;SDS011;2581;53.112;8.896;2022-07-23T11:15:00;6.27;;;3.33;;
5125;SDS011;2581;53.112;8.896;2022-07-23T11:17:29;1.57;;;1.47;;
5125;SDS011;2581;53.112;8.896;2022-07-23T11:25:09;4.83;;;1.87;;
5125;SDS011;2581;53.112;8.896;2022-07-23T11:30:08;4.90;;;2.80;;
5125;SDS011;2581;53.112;8.896;2022-07-23T11:32:39;3.63;;;3.33;;
5125;SDS011;2581;53.112;8.896;2022-07-23T11:35:18;2.33;;;2.13;;
5125;SDS011;2581;53.112;8.896;2022-07-23T11:37:45;7.70;;;6.53;;
5125;SDS011;2581;53.112;8.896;2022-07-23T11:40:12;2.40;;;2.20;;
5125;SDS011;2581;53.112;8.896;2022-07-23T11:42:50;5.13;;;1.10;;
5125;SDS011;2581;53.112;8.896;2022-07-23T11:45:19;1.50;;;0.80;;
5125;SDS011;2581;53.112;8.896;2022-07-23T11:47:45;0.63;;;0.63;;
5125;SDS011;2581;53.112;8.896;2022-07-23T11:50:11;0.70;;;0.60;;
5125;SDS011;2581;53.112;8.896;2022-07-23T11:52:38;1.00;;;0.60;;
5125;SDS011;2581;53.112;8.896;2022-07-23T11:55:05;0.60;;;0.40;;
5125;SDS011;2581;53.112;8.896;2022-07-23T11:57:33;4.60;;;0.60;;
5125;SDS011;2581;53.112;8.896;2022-07-23T12:00:11;1.20;;;0.60;;
5125;SDS011;2581;53.112;8.896;2022-07-23T12:02:39;0.67;;;0.67;;
5125;SDS011;2581;53.112;8.896;2022-07-23T12:05:06;1.07;;;0.67;;
5125;SDS011;2581;53.112;8.896;2022-07-23T12:07:35;2.13;;;0.50;;
5125;SDS011;2581;53.112;8.896;2022-07-23T12:10:04;0.40;;;0.40;;
5125;SDS011;2581;53.112;8.896;2022-07-23T12:12:40;0.77;;;0.50;;
5125;SDS011;2581;53.112;8.896;2022-07-23T12:15:08;1.23;;;0.50;;
5125;SDS011;2581;53.112;8.896;2022-07-23T12:17:36;0.60;;;0.60;;
5125;SDS011;2581;53.112;8.896;2022-07-23T12:20:04;0.80;;;0.70;;
5125;SDS011;2581;53.112;8.896;2022-07-23T12:22:42;1.20;;;0.57;;
5125;SDS011;2581;53.112;8.896;2022-07-23T12:27:41;1.07;;;0.47;;
5125;SDS011;2581;53.112;8.896;2022-07-23T12:32:46;1.50;;;0.50;;
5125;SDS011;2581;53.112;8.896;2022-07-23T12:35:12;0.60;;;0.60;;
5125;SDS011;2581;53.112;8.896;2022-07-23T12:37:42;2.83;;;0.90;;
5125;SDS011;2581;53.112;8.896;2022-07-23T12:40:24;0.60;;;0.60;;
5125;SDS011;2581;53.112;8.896;2022-07-23T12:42:53;1.63;;;0.60;;
5125;SDS011;2581;53.112;8.896;2022-07-23T12:45:20;0.63;;;0.63;;
5125;SDS011;2581;53.112;8.896;2022-07-23T12:48:03;0.60;;;0.60;;
5125;SDS011;2581;53.112;8.896;2022-07-23T12:50:42;0.50;;;0.50;;
5125;SDS011;2581;53.112;8.896;2022-07-23T12:53:15;0.40;;;0.40;;
5125;SDS011;2581;53.112;8.896;2022-07-23T12:55:46;1.80;;;0.70;;
5125;SDS011;2581;53.112;8.896;2022-07-23T12:58:17;0.60;;;0.53;;
5125;SDS011;2581;53.112;8.896;2022-07-23T13:03:30;2.63;;;1.53;;
5125;SDS011;2581;53.112;8.896;2022-07-23T13:06:04;2.07;;;1.97;;
5125;SDS011;2581;53.112;8.896;2022-07-23T13:08:32;3.40;;;3.10;;
5125;SDS011;2581;53.112;8.896;2022-07-23T13:10:59;3.90;;;3.30;;
5125;SDS011;2581;53.112;8.896;2022-07-23T13:13:26;2.97;;;2.70;;
5125;SDS011;2581;53.112;8.896;2022-07-23T13:15:53;1.30;;;0.80;;
5125;SDS011;2581;53.112;8.896;2022-07-23T13:18:19;0.77;;;0.67;;
5125;SDS011;2581;53.112;8.896;2022-07-23T13:20:46;2.93;;;0.50;;
5125;SDS011;2581;53.112;8.896;2022-07-23T13:23:12;0.93;;;0.60;;
5125;SDS011;2581;53.112;8.896;2022-07-23T13:25:39;0.60;;;0.53;;
5125;SDS011;2581;53.112;8.896;2022-07-23T13:28:05;0.80;;;0.80;;
5125;SDS011;2581;53.112;8.896;2022-07-23T13:30:31;0.40;;;0.40;;
5125;SDS011;2581;53.112;8.896;2022-07-23T13:32:57;0.60;;;0.60;;
5125;SDS011;2581;53.112;8.896;2022-07-23T13:35:22;1.13;;;0.53;;
5125;SDS011;2581;53.112;8.896;2022-07-23T13:37:48;0.50;;;0.40;;
5125;SDS011;2581;53.112;8.896;2022-07-23T13:40:14;0.50;;;0.50;;
5125;SDS011;2581;53.112;8.896;2022-07-23T13:42:40;0.40;;;0.40;;
5125;SDS011;2581;53.112;8.896;2022-07-23T13:45:06;0.97;;;0.60;;
5125;SDS011;2581;53.112;8.896;2022-07-23T13:47:32;0.50;;;0.50;;
5125;SDS011;2581;53.112;8.896;2022-07-23T13:49:58;1.07;;;0.53;;
5125;SDS011;2581;53.112;8.896;2022-07-23T13:52:24;0.70;;;0.63;;
5125;SDS011;2581;53.112;8.896;2022-07-23T13:54:50;0.80;;;0.67;;
5125;SDS011;2581;53.112;8.896;2022-07-23T13:57:16;0.83;;;0.63;;
5125;SDS011;2581;53.112;8.896;2022-07-23T13:59:41;2.43;;;0.70;;
5125;SDS011;2581;53.112;8.896;2022-07-23T14:02:07;0.50;;;0.50;;
5125;SDS011;2581;53.112;8.896;2022-07-23T14:04:33;0.60;;;0.60;;
5125;SDS011;2581;53.112;8.896;2022-07-23T14:06:59;3.10;;;0.60;;
5125;SDS011;2581;53.112;8.896;2022-07-23T14:09:25;0.53;;;0.50;;
5125;SDS011;2581;53.112;8.896;2022-07-23T14:11:51;0.60;;;0.60;;
5125;SDS011;2581;53.112;8.896;2022-07-23T14:14:17;1.13;;;0.90;;
5125;SDS011;2581;53.112;8.896;2022-07-23T14:16:43;1.07;;;0.50;;
5125;SDS011;2581;53.112;8.896;2022-07-23T14:19:09;0.60;;;0.60;;
5125;SDS011;2581;53.112;8.896;2022-07-23T14:21:36;0.80;;;0.67;;
5125;SDS011;2581;53.112;8.896;2022-07-23T14:24:02;6.07;;;4.40;;
5125;SDS011;2581;53.112;8.896;2022-07-23T14:26:28;7.87;;;6.27;;
5125;SDS011;2581;53.112;8.896;2022-07-23T14:28:54;9.07;;;7.10;;
5125;SDS011;2581;53.112;8.896;2022-07-23T14:31:20;6.10;;;3.90;;
5125;SDS011;2581;53.112;8.896;2022-07-23T14:33:46;3.83;;;3.20;;
5125;SDS011;2581;53.112;8.896;2022-07-23T14:36:12;1.00;;;1.00;;
5125;SDS011;2581;53.112;8.896;2022-07-23T14:38:38;1.00;;;1.00;;
5125;SDS011;2581;53.112;8.896;2022-07-23T14:41:03;1.00;;;0.70;;
5125;SDS011;2581;53.112;8.896;2022-07-23T14:43:31;1.23;;;0.70;;
5125;SDS011;2581;53.112;8.896;2022-07-23T14:45:57;1.63;;;0.80;;
5125;SDS011;2581;53.112;8.896;2022-07-23T14:48:23;0.80;;;0.80;;
5125;SDS011;2581;53.112;8.896;2022-07-23T14:50:49;0.87;;;0.87;;
5125;SDS011;2581;53.112;8.896;2022-07-23T14:53:15;1.57;;;0.80;;
5125;SDS011;2581;53.112;8.896;2022-07-23T14:55:40;9.10;;;0.77;;
5125;SDS011;2581;53.112;8.896;2022-07-23T14:58:06;0.60;;;0.60;;
5125;SDS011;2581;53.112;8.896;2022-07-23T15:00:31;3.20;;;0.80;;
5125;SDS011;2581;53.112;8.896;2022-07-23T15:02:58;1.27;;;0.80;;
5125;SDS011;2581;53.112;8.896;2022-07-23T15:05:23;0.63;;;0.60;;
5125;SDS011;2581;53.112;8.896;2022-07-23T15:07:49;2.93;;;0.60;;
5125;SDS011;2581;53.112;8.896;2022-07-23T15:10:15;1.30;;;0.97;;
5125;SDS011;2581;53.112;8.896;2022-07-23T15:12:41;2.73;;;1.10;;
5125;SDS011;2581;53.112;8.896;2022-07-23T15:15:07;0.87;;;0.60;;
5125;SDS011;2581;53.112;8.896;2022-07-23T15:17:33;1.37;;;0.60;;
5125;SDS011;2581;53.112;8.896;2022-07-23T15:19:59;0.73;;;0.73;;
5125;SDS011;2581;53.112;8.896;2022-07-23T15:22:24;0.70;;;0.70;;
5125;SDS011;2581;53.112;8.896;2022-07-23T15:24:50;1.90;;;0.80;;
5125;SDS011;2581;53.112;8.896;2022-07-23T15:27:16;1.77;;;0.77;;
5125;SDS011;2581;53.112;8.896;2022-07-23T15:29:43;0.70;;;0.50;;
5125;SDS011;2581;53.112;8.896;2022-07-23T15:32:09;2.10;;;0.60;;
5125;SDS011;2581;53.112;8.896;2022-07-23T15:34:36;1.80;;;0.97;;
5125;SDS011;2581;53.112;8.896;2022-07-23T15:37:02;0.93;;;0.77;;
5125;SDS011;2581;53.112;8.896;2022-07-23T15:39:30;0.80;;;0.70;;
5125;SDS011;2581;53.112;8.896;2022-07-23T15:41:57;2.07;;;0.90;;
5125;SDS011;2581;53.112;8.896;2022-07-23T15:44:27;1.30;;;0.90;;
5125;SDS011;2581;53.112;8.896;2022-07-23T15:46:53;1.60;;;0.60;;
5125;SDS011;2581;53.112;8.896;2022-07-23T15:49:20;2.40;;;1.70;;
5125;SDS011;2581;53.112;8.896;2022-07-23T15:51:46;4.20;;;3.80;;
5125;SDS011;2581;53.112;8.896;2022-07-23T15:54:12;6.17;;;4.93;;
5125;SDS011;2581;53.112;8.896;2022-07-23T15:56:37;1.83;;;1.73;;
5125;SDS011;2581;53.112;8.896;2022-07-23T15:59:03;2.47;;;1.27;;
5125;SDS011;2581;53.112;8.896;2022-07-23T16:01:29;2.17;;;0.80;;
5125;SDS011;2581;53.112;8.896;2022-07-23T16:03:55;1.70;;;1.13;;
5125;SDS011;2581;53.112;8.896;2022-07-23T16:06:23;1.17;;;0.63;;
5125;SDS011;2581;53.112;8.896;2022-07-23T16:08:50;0.60;;;0.60;;